createdAt,value
2023-02-28T00:00:03.029Z,81.49
2023-02-28T00:01:03.020Z,81.92
2023-02-28T00:02:03.095Z,81.70
2023-02-28T00:03:03.074Z,82.12
2023-02-28T00:04:03.028Z,82.12
2023-02-28T00:05:02.999Z,82.23
2023-02-28T00:06:02.988Z,82.58
2023-02-28T00:07:04.484Z,82.68
2023-02-28T00:08:02.968Z,82.68
2023-02-28T00:09:02.974Z,82.79
2023-02-28T00:10:02.967Z,82.68
2023-02-28T00:11:02.948Z,82.58
2023-02-28T00:12:02.948Z,82.89
2023-02-28T00:13:02.933Z,82.68
2023-02-28T00:14:02.925Z,82.68
2023-02-28T00:15:02.911Z,82.33
2023-02-28T00:16:02.917Z,82.33
2023-02-28T00:17:02.908Z,82.54
2023-02-28T00:18:02.891Z,82.06
2023-02-28T00:19:02.898Z,82.33
2023-02-28T00:20:02.888Z,82.54
2023-02-28T00:21:02.882Z,82.43
2023-02-28T00:22:02.875Z,82.02
2023-02-28T00:23:02.881Z,82.12
2023-02-28T00:24:51.401Z,82.43
2023-02-28T00:25:51.415Z,82.54
2023-02-28T00:26:51.399Z,82.65
2023-02-28T00:27:51.392Z,82.43
2023-02-28T00:28:52.481Z,82.43
2023-02-28T00:29:52.455Z,82.86
2023-02-28T00:30:52.521Z,82.65
2023-02-28T00:31:52.468Z,82.65
2023-02-28T00:32:52.452Z,82.75
2023-02-28T00:33:52.448Z,82.75
2023-02-28T00:34:52.426Z,82.86
2023-02-28T00:35:52.468Z,83.21
2023-02-28T00:36:52.432Z,83.10
2023-02-28T00:37:52.399Z,83.27
2023-02-28T00:38:52.406Z,83.17
2023-02-28T00:39:52.423Z,83.27
2023-02-28T00:40:52.375Z,83.06
2023-02-28T00:41:52.372Z,83.06
2023-02-28T00:42:52.364Z,83.27
2023-02-28T00:43:52.356Z,83.48
2023-02-28T00:44:52.348Z,83.17
2023-02-28T00:45:52.368Z,83.48
2023-02-28T00:46:52.350Z,83.38
2023-02-28T00:47:52.322Z,83.38
2023-02-28T00:48:52.318Z,83.38
2023-02-28T00:49:52.839Z,83.27
2023-02-28T00:50:52.296Z,83.27
2023-02-28T00:51:52.294Z,83.59
2023-02-28T00:52:52.276Z,83.48
2023-02-28T00:53:52.282Z,83.48
2023-02-28T00:54:52.314Z,83.90
2023-02-28T00:55:53.266Z,83.48
2023-02-28T00:56:52.243Z,83.94
2023-02-28T00:57:52.311Z,84.25
2023-02-28T00:58:52.270Z,83.94
2023-02-28T00:59:52.263Z,83.94
2023-02-28T01:00:52.216Z,84.25
2023-02-28T01:01:52.330Z,84.05
2023-02-28T01:02:52.222Z,84.05
2023-02-28T01:03:52.203Z,84.15
2023-02-28T01:04:52.202Z,83.94
2023-02-28T01:05:52.178Z,84.15
2023-02-28T01:06:52.166Z,83.83
2023-02-28T01:07:52.156Z,84.15
2023-02-28T01:08:52.196Z,84.05
2023-02-28T01:09:52.156Z,84.05
2023-02-28T01:10:52.166Z,83.94
2023-02-28T01:11:52.128Z,84.05
2023-02-28T01:12:52.124Z,83.73
2023-02-28T01:13:52.124Z,84.25
2023-02-28T01:14:52.111Z,83.94
2023-02-28T01:15:52.210Z,84.05
2023-02-28T01:16:52.110Z,84.15
2023-02-28T01:17:52.083Z,83.62
2023-02-28T01:18:52.074Z,84.25
2023-02-28T01:19:52.074Z,84.15
2023-02-28T01:20:52.070Z,84.15
2023-02-28T01:21:52.048Z,83.73
2023-02-28T01:22:52.046Z,84.15
2023-02-28T01:23:52.042Z,84.15
2023-02-28T01:24:52.043Z,84.05
2023-02-28T01:25:52.056Z,83.83
2023-02-28T01:26:52.014Z,84.29
2023-02-28T01:27:52.006Z,84.19
2023-02-28T01:28:52.007Z,84.19
2023-02-28T01:29:51.992Z,84.19
2023-02-28T01:30:52.309Z,84.19
2023-02-28T01:31:51.997Z,84.08
2023-02-28T01:32:51.965Z,84.15
2023-02-28T01:33:51.962Z,84.19
2023-02-28T01:34:51.966Z,84.50
2023-02-28T01:35:51.964Z,84.61
2023-02-28T01:36:51.935Z,84.61
2023-02-28T01:37:51.921Z,84.39
2023-02-28T01:38:51.917Z,84.50
2023-02-28T01:39:51.928Z,84.39
2023-02-28T01:40:52.758Z,84.61
2023-02-28T01:41:51.878Z,84.29
2023-02-28T01:42:52.892Z,84.19
2023-02-28T01:43:51.873Z,84.08
2023-02-28T01:44:51.868Z,84.50
2023-02-28T01:45:51.922Z,84.29
2023-02-28T01:46:51.855Z,84.71
2023-02-28T01:47:51.845Z,84.19
2023-02-28T01:48:51.838Z,84.61
2023-02-28T01:49:51.840Z,84.39
2023-02-28T01:50:51.823Z,84.50
2023-02-28T01:51:52.059Z,84.81
2023-02-28T01:52:51.809Z,84.81
2023-02-28T01:53:51.854Z,84.61
2023-02-28T01:54:51.798Z,84.50
2023-02-28T01:55:51.783Z,84.50
2023-02-28T01:56:51.802Z,84.39
2023-02-28T01:57:52.265Z,84.39
2023-02-28T01:58:51.760Z,84.50
2023-02-28T01:59:52.268Z,84.22
2023-02-28T02:00:51.747Z,84.39
2023-02-28T02:01:51.751Z,84.33
2023-02-28T02:02:51.787Z,84.50
2023-02-28T02:03:51.718Z,84.19
2023-02-28T02:04:51.709Z,84.22
2023-02-28T02:05:51.716Z,84.61
2023-02-28T02:06:51.695Z,84.22
2023-02-28T02:07:51.704Z,84.64
2023-02-28T02:08:51.672Z,84.44
2023-02-28T02:09:51.682Z,84.29
2023-02-28T02:10:51.666Z,84.50
2023-02-28T02:11:51.669Z,84.50
2023-02-28T02:12:51.654Z,84.33
2023-02-28T02:13:51.633Z,84.71
2023-02-28T02:14:51.637Z,83.98
2023-02-28T02:15:51.695Z,83.98
2023-02-28T02:16:51.648Z,84.19
2023-02-28T02:17:51.608Z,84.19
2023-02-28T02:18:51.596Z,84.29
2023-02-28T02:19:51.593Z,84.19
2023-02-28T02:20:51.581Z,84.08
2023-02-28T02:21:51.584Z,84.08
2023-02-28T02:22:51.584Z,84.01
2023-02-28T02:23:51.561Z,83.87
2023-02-28T02:24:51.561Z,84.19
2023-02-28T02:25:51.542Z,84.19
2023-02-28T02:26:51.554Z,84.12
2023-02-28T02:27:51.549Z,83.98
2023-02-28T02:28:51.525Z,83.98
2023-02-28T02:29:51.516Z,84.08
2023-02-28T02:30:51.511Z,83.87
2023-02-28T02:31:51.611Z,83.91
2023-02-28T02:32:51.501Z,83.81
2023-02-28T02:33:51.488Z,83.87
2023-02-28T02:34:51.481Z,83.87
2023-02-28T02:35:51.527Z,84.29
2023-02-28T02:36:51.465Z,84.19
2023-02-28T02:37:51.466Z,83.81
2023-02-28T02:38:51.460Z,83.98
2023-02-28T02:39:51.444Z,83.87
2023-02-28T02:40:51.447Z,83.87
2023-02-28T02:41:51.444Z,83.70
2023-02-28T02:42:51.420Z,83.77
2023-02-28T02:43:51.433Z,83.59
2023-02-28T02:44:51.400Z,83.70
2023-02-28T02:45:51.407Z,83.59
2023-02-28T02:46:51.412Z,83.77
2023-02-28T02:47:51.374Z,83.49
2023-02-28T02:48:51.367Z,83.45
2023-02-28T02:49:51.357Z,83.45
2023-02-28T02:50:51.363Z,83.49
2023-02-28T02:51:52.274Z,83.56
2023-02-28T02:52:51.338Z,83.03
2023-02-28T02:53:51.361Z,82.93
2023-02-28T02:54:52.628Z,82.82
2023-02-28T02:55:51.315Z,82.82
2023-02-28T02:56:51.299Z,82.51
2023-02-28T02:57:51.291Z,82.51
2023-02-28T02:58:51.289Z,82.82
2023-02-28T02:59:51.286Z,82.82
2023-02-28T03:00:51.332Z,82.72
2023-02-28T03:01:51.261Z,82.30
2023-02-28T03:02:51.252Z,82.20
2023-02-28T03:03:51.271Z,82.20
2023-02-28T03:04:51.230Z,82.40
2023-02-28T03:05:52.227Z,82.20
2023-02-28T03:06:51.227Z,82.20
2023-02-28T03:07:51.221Z,81.99
2023-02-28T03:08:51.213Z,82.09
2023-02-28T03:09:51.846Z,82.40
2023-02-28T03:10:51.189Z,82.30
2023-02-28T03:11:51.181Z,82.30
2023-02-28T03:12:51.169Z,81.99
2023-02-28T03:13:51.175Z,81.99
2023-02-28T03:14:51.152Z,82.20
2023-02-28T03:15:51.151Z,81.67
2023-02-28T03:16:51.146Z,81.36
2023-02-28T03:17:51.144Z,81.57
2023-02-28T03:18:51.125Z,81.26
2023-02-28T03:19:51.132Z,81.57
2023-02-28T03:20:51.115Z,81.67
2023-02-28T03:21:51.115Z,81.67
2023-02-28T03:22:51.095Z,81.88
2023-02-28T03:23:51.088Z,81.67
2023-02-28T03:24:51.087Z,80.94
2023-02-28T03:25:51.078Z,81.57
2023-02-28T03:26:51.078Z,81.57
2023-02-28T03:27:51.059Z,81.57
2023-02-28T03:28:51.053Z,81.78
2023-02-28T03:29:51.040Z,81.67
2023-02-28T03:30:51.032Z,82.06
2023-02-28T03:31:51.171Z,81.15
2023-02-28T03:32:51.019Z,80.94
2023-02-28T03:33:51.009Z,80.94
2023-02-28T03:34:51.007Z,81.15
2023-02-28T03:35:51.073Z,81.32
2023-02-28T03:36:51.061Z,81.15
2023-02-28T03:37:50.984Z,81.12
2023-02-28T03:38:50.983Z,81.15
2023-02-28T03:39:50.964Z,81.36
2023-02-28T03:40:50.976Z,81.57
2023-02-28T03:41:50.960Z,81.78
2023-02-28T03:42:50.944Z,81.78
2023-02-28T03:43:50.965Z,81.15
2023-02-28T03:44:50.926Z,81.78
2023-02-28T03:45:50.944Z,81.04
2023-02-28T03:46:50.905Z,80.94
2023-02-28T03:47:50.979Z,81.78
2023-02-28T03:48:50.893Z,81.78
2023-02-28T03:49:50.885Z,81.46
2023-02-28T03:50:50.883Z,81.15
2023-02-28T03:51:50.862Z,81.67
2023-02-28T03:52:50.852Z,81.43
2023-02-28T03:53:51.853Z,81.46
2023-02-28T03:54:50.844Z,80.90
2023-02-28T03:55:51.795Z,81.22
2023-02-28T03:56:50.826Z,80.17
2023-02-28T03:57:50.817Z,80.07
2023-02-28T03:58:54.815Z,80.00
2023-02-28T03:59:50.813Z,80.49
2023-02-28T04:00:50.809Z,79.96
2023-02-28T04:01:50.825Z,80.38
2023-02-28T04:02:50.789Z,80.38
2023-02-28T04:03:50.780Z,80.69
2023-02-28T04:04:50.782Z,79.75
2023-02-28T04:05:50.772Z,79.96
2023-02-28T04:06:51.648Z,79.96
2023-02-28T04:07:51.752Z,79.75
2023-02-28T04:08:50.730Z,79.96
2023-02-28T04:09:50.730Z,79.64
2023-02-28T04:10:50.716Z,80.27
2023-02-28T04:11:50.713Z,79.96
2023-02-28T04:12:50.703Z,79.44
2023-02-28T04:13:50.698Z,79.54
2023-02-28T04:14:50.685Z,79.50
2023-02-28T04:15:50.728Z,79.13
2023-02-28T04:16:50.674Z,79.13
2023-02-28T04:17:50.671Z,79.13
2023-02-28T04:18:50.653Z,79.13
2023-02-28T04:19:50.655Z,79.54
2023-02-28T04:20:50.650Z,79.33
2023-02-28T04:21:50.634Z,78.50
2023-02-28T04:22:50.624Z,79.40
2023-02-28T04:23:50.622Z,79.54
2023-02-28T04:24:50.612Z,78.18
2023-02-28T04:25:50.600Z,78.60
2023-02-28T04:26:50.602Z,78.60
2023-02-28T04:27:50.582Z,78.50
2023-02-28T04:28:50.592Z,77.97
2023-02-28T04:29:50.566Z,77.03
2023-02-28T04:30:50.563Z,77.20
2023-02-28T04:31:50.734Z,77.34
2023-02-28T04:32:50.574Z,77.03
2023-02-28T04:33:50.543Z,77.20
2023-02-28T04:34:51.368Z,77.42
2023-02-28T04:35:50.568Z,77.24
2023-02-28T04:36:56.917Z,77.00
2023-02-28T04:37:52.509Z,77.24
2023-02-28T04:38:50.510Z,76.57
2023-02-28T04:39:50.496Z,76.72
2023-02-28T04:40:50.486Z,76.51
2023-02-28T04:41:50.468Z,77.10
2023-02-28T04:42:50.468Z,76.68
2023-02-28T04:43:50.455Z,76.37
2023-02-28T04:44:50.453Z,76.47
2023-02-28T04:45:50.488Z,76.26
2023-02-28T04:46:50.429Z,76.51
2023-02-28T04:47:50.421Z,76.40
2023-02-28T04:48:50.416Z,76.40
2023-02-28T04:49:50.416Z,75.35
2023-02-28T04:50:50.401Z,75.95
2023-02-28T04:51:50.399Z,76.20
2023-02-28T04:52:50.394Z,76.57
2023-02-28T04:53:50.382Z,76.51
2023-02-28T04:54:50.367Z,76.09
2023-02-28T04:55:50.374Z,75.67
2023-02-28T04:56:50.360Z,76.40
2023-02-28T04:57:50.353Z,76.40
2023-02-28T04:58:50.363Z,76.68
2023-02-28T04:59:50.336Z,76.09
2023-02-28T05:00:50.320Z,75.15
2023-02-28T05:01:50.322Z,75.78
2023-02-28T05:02:50.308Z,75.01
2023-02-28T05:03:50.866Z,75.32
2023-02-28T05:04:50.356Z,75.25
2023-02-28T05:05:50.312Z,75.25
2023-02-28T05:06:50.277Z,76.09
2023-02-28T05:07:50.273Z,75.32
2023-02-28T05:08:50.270Z,75.04
2023-02-28T05:09:50.257Z,75.22
2023-02-28T05:10:50.246Z,75.15
2023-02-28T05:11:50.243Z,75.25
2023-02-28T05:12:50.230Z,75.25
2023-02-28T05:13:50.215Z,74.73
2023-02-28T05:14:50.214Z,74.38
2023-02-28T05:15:50.215Z,74.62
2023-02-28T05:16:50.201Z,74.62
2023-02-28T05:17:50.183Z,74.80
2023-02-28T05:18:50.235Z,74.80
2023-02-28T05:19:50.171Z,74.69
2023-02-28T05:20:50.167Z,74.94
2023-02-28T05:21:50.180Z,74.80
2023-02-28T05:22:50.142Z,74.38
2023-02-28T05:23:50.147Z,74.27
2023-02-28T05:24:50.128Z,74.10
2023-02-28T05:25:50.126Z,74.07
2023-02-28T05:26:50.118Z,74.21
2023-02-28T05:27:50.111Z,73.65
2023-02-28T05:28:50.106Z,73.89
2023-02-28T05:29:50.098Z,74.07
2023-02-28T05:30:50.078Z,74.07
2023-02-28T05:31:50.297Z,73.99
2023-02-28T05:32:50.071Z,73.99
2023-02-28T05:33:50.056Z,74.07
2023-02-28T05:34:50.053Z,74.10
2023-02-28T05:35:50.068Z,74.21
2023-02-28T05:36:50.045Z,74.07
2023-02-28T05:37:50.042Z,73.99
2023-02-28T05:38:51.871Z,74.21
2023-02-28T05:39:50.011Z,74.10
2023-02-28T05:40:51.829Z,74.21
2023-02-28T05:41:51.877Z,73.99
2023-02-28T05:42:49.999Z,73.75
2023-02-28T05:43:49.996Z,74.10
2023-02-28T05:44:49.992Z,73.89
2023-02-28T05:45:49.996Z,73.96
2023-02-28T05:46:49.955Z,73.54
2023-02-28T05:47:49.953Z,73.33
2023-02-28T05:48:50.075Z,73.26
2023-02-28T05:49:51.878Z,73.16
2023-02-28T05:50:49.928Z,73.47
2023-02-28T05:51:49.907Z,72.64
2023-02-28T05:52:49.905Z,72.95
2023-02-28T05:53:49.909Z,73.05
2023-02-28T05:54:49.889Z,73.47
2023-02-28T05:55:49.888Z,73.05
2023-02-28T05:56:49.875Z,73.05
2023-02-28T05:57:49.884Z,73.16
2023-02-28T05:58:49.865Z,72.64
2023-02-28T05:59:49.868Z,72.85
2023-02-28T06:00:49.846Z,72.64
2023-02-28T06:01:49.844Z,72.95
2023-02-28T06:02:49.841Z,72.32
2023-02-28T06:03:49.828Z,72.95
2023-02-28T06:04:49.829Z,72.11
2023-02-28T06:05:49.813Z,72.74
2023-02-28T06:06:49.818Z,72.85
2023-02-28T06:07:49.800Z,72.85
2023-02-28T06:08:49.803Z,72.53
2023-02-28T06:09:49.774Z,72.53
2023-02-28T06:10:49.773Z,71.69
2023-02-28T06:11:55.019Z,71.38
2023-02-28T06:12:50.782Z,71.59
2023-02-28T06:13:49.747Z,71.90
2023-02-28T06:14:50.794Z,71.87
2023-02-28T06:15:49.735Z,71.69
2023-02-28T06:16:49.769Z,71.69
2023-02-28T06:17:49.713Z,71.45
2023-02-28T06:18:49.711Z,71.28
2023-02-28T06:19:49.699Z,71.80
2023-02-28T06:20:49.693Z,72.42
2023-02-28T06:21:49.698Z,71.80
2023-02-28T06:22:49.680Z,71.03
2023-02-28T06:23:49.687Z,71.38
2023-02-28T06:24:49.663Z,71.69
2023-02-28T06:25:49.656Z,71.80
2023-02-28T06:26:49.654Z,71.87
2023-02-28T06:27:49.643Z,71.17
2023-02-28T06:28:49.634Z,71.45
2023-02-28T06:29:50.624Z,71.24
2023-02-28T06:30:50.298Z,71.21
2023-02-28T06:31:50.685Z,70.27
2023-02-28T06:32:49.599Z,69.71
2023-02-28T06:33:49.607Z,69.16
2023-02-28T06:34:50.392Z,68.71
2023-02-28T06:35:49.625Z,67.46
2023-02-28T06:36:51.297Z,67.43
2023-02-28T06:37:49.569Z,67.43
2023-02-28T06:38:49.546Z,66.80
2023-02-28T06:39:49.575Z,64.92
2023-02-28T06:40:49.554Z,66.07
2023-02-28T06:41:55.215Z,66.17
2023-02-28T06:42:51.527Z,64.89
2023-02-28T06:43:49.508Z,64.69
2023-02-28T06:44:49.500Z,64.69
2023-02-28T06:45:50.528Z,65.16
2023-02-28T06:46:49.507Z,65.03
2023-02-28T06:47:49.484Z,65.34
2023-02-28T06:48:49.488Z,64.50
2023-02-28T06:49:51.373Z,64.47
2023-02-28T06:50:49.472Z,64.47
2023-02-28T06:51:49.460Z,64.65
2023-02-28T06:52:49.448Z,63.89
2023-02-28T06:53:49.443Z,62.85
2023-02-28T06:54:49.440Z,62.02
2023-02-28T06:55:49.428Z,61.71
2023-02-28T06:56:50.306Z,61.78
2023-02-28T06:57:49.424Z,62.48
2023-02-28T06:58:49.435Z,61.65
2023-02-28T06:59:49.423Z,61.02
2023-02-28T07:00:49.390Z,61.41
2023-02-28T07:01:49.399Z,60.92
2023-02-28T07:02:49.376Z,61.02
2023-02-28T07:03:49.368Z,61.21
2023-02-28T07:04:49.396Z,59.72
2023-02-28T07:05:49.338Z,60.14
2023-02-28T07:06:49.335Z,59.48
2023-02-28T07:07:49.405Z,58.97
2023-02-28T07:08:49.316Z,58.54
2023-02-28T07:09:49.313Z,58.97
2023-02-28T07:10:49.304Z,57.24
2023-02-28T07:11:49.291Z,58.00
2023-02-28T07:12:49.283Z,57.67
2023-02-28T07:13:50.281Z,57.79
2023-02-28T07:14:49.269Z,57.59
2023-02-28T07:15:49.270Z,57.69
2023-02-28T07:16:49.248Z,57.67
2023-02-28T07:17:49.254Z,57.56
2023-02-28T07:18:49.231Z,57.12
2023-02-28T07:19:49.232Z,57.01
2023-02-28T07:20:49.216Z,56.78
2023-02-28T07:21:49.205Z,56.62
2023-02-28T07:22:49.219Z,57.17
2023-02-28T07:23:49.200Z,56.93
2023-02-28T07:24:49.190Z,56.78
2023-02-28T07:25:49.229Z,56.18
2023-02-28T07:26:49.182Z,56.91
2023-02-28T07:27:49.160Z,56.91
2023-02-28T07:28:49.163Z,56.29
2023-02-28T07:29:49.140Z,55.87
2023-02-28T07:30:49.307Z,55.85
2023-02-28T07:31:49.151Z,55.54
2023-02-28T07:32:49.128Z,55.33
2023-02-28T07:33:49.106Z,55.64
2023-02-28T07:34:49.103Z,55.46
2023-02-28T07:35:49.121Z,56.31
2023-02-28T07:36:51.287Z,56.76
2023-02-28T07:37:49.090Z,57.71
2023-02-28T07:38:49.081Z,58.47
2023-02-28T07:39:49.097Z,59.44
2023-02-28T07:40:49.059Z,59.33
2023-02-28T07:41:49.063Z,59.77
2023-02-28T07:42:49.087Z,60.09
2023-02-28T07:43:49.052Z,59.33
2023-02-28T07:44:49.026Z,59.85
2023-02-28T07:45:50.813Z,59.33
2023-02-28T07:46:49.081Z,59.95
2023-02-28T07:47:49.008Z,59.85
2023-02-28T07:48:49.007Z,59.44
2023-02-28T07:49:48.999Z,59.51
2023-02-28T07:50:48.987Z,58.06
2023-02-28T07:51:48.988Z,58.68
2023-02-28T07:52:48.965Z,59.23
2023-02-28T07:53:48.963Z,59.41
2023-02-28T07:54:48.943Z,59.30
2023-02-28T07:55:48.942Z,58.18
2023-02-28T07:56:48.944Z,59.02
2023-02-28T07:57:48.936Z,58.78
2023-02-28T07:58:48.917Z,58.78
2023-02-28T07:59:48.915Z,58.06
2023-02-28T08:00:48.945Z,59.54
2023-02-28T08:01:48.950Z,59.75
2023-02-28T08:02:48.898Z,59.25
2023-02-28T08:03:48.889Z,59.05
2023-02-28T08:04:49.427Z,59.36
2023-02-28T08:05:48.856Z,59.91
2023-02-28T08:06:48.848Z,59.70
2023-02-28T08:07:48.858Z,59.28
2023-02-28T08:08:48.837Z,59.80
2023-02-28T08:09:48.832Z,59.70
2023-02-28T08:10:48.821Z,60.11
2023-02-28T08:11:50.451Z,60.74
2023-02-28T08:12:48.801Z,59.91
2023-02-28T08:13:48.793Z,59.59
2023-02-28T08:14:48.782Z,59.46
2023-02-28T08:15:48.856Z,59.25
2023-02-28T08:16:48.777Z,57.79
2023-02-28T08:17:48.765Z,58.11
2023-02-28T08:18:48.792Z,59.15
2023-02-28T08:19:48.740Z,56.83
2023-02-28T08:20:48.759Z,57.17
2023-02-28T08:21:48.736Z,57.17
2023-02-28T08:22:48.732Z,56.96
2023-02-28T08:23:48.722Z,56.65
2023-02-28T08:24:48.713Z,56.99
2023-02-28T08:25:48.700Z,57.30
2023-02-28T08:26:48.688Z,57.17
2023-02-28T08:27:48.681Z,57.17
2023-02-28T08:28:48.682Z,57.07
2023-02-28T08:29:48.656Z,56.86
2023-02-28T08:30:48.667Z,57.38
2023-02-28T08:31:48.836Z,56.78
2023-02-28T08:32:48.688Z,56.91
2023-02-28T08:33:48.644Z,56.91
2023-02-28T08:34:48.654Z,56.91
2023-02-28T08:35:48.696Z,57.95
2023-02-28T08:36:48.604Z,57.12
2023-02-28T08:37:48.598Z,56.83
2023-02-28T08:38:48.592Z,58.18
2023-02-28T08:39:48.590Z,57.98
2023-02-28T08:40:48.580Z,57.77
2023-02-28T08:41:53.457Z,57.98
2023-02-28T08:42:50.592Z,57.67
2023-02-28T08:43:48.558Z,57.15
2023-02-28T08:44:48.541Z,57.35
2023-02-28T08:45:48.591Z,57.17
2023-02-28T08:46:48.530Z,57.15
2023-02-28T08:47:48.548Z,57.04
2023-02-28T08:48:48.520Z,57.35
2023-02-28T08:49:48.503Z,57.75
2023-02-28T08:50:55.725Z,58.08
2023-02-28T08:51:50.494Z,57.93
2023-02-28T08:52:48.490Z,58.03
2023-02-28T08:53:48.472Z,57.51
2023-02-28T08:54:48.465Z,56.15
2023-02-28T08:55:48.487Z,56.78
2023-02-28T08:56:48.461Z,57.20
2023-02-28T08:57:48.861Z,57.28
2023-02-28T08:58:48.435Z,56.86
2023-02-28T08:59:48.436Z,56.96
2023-02-28T09:00:48.502Z,55.74
2023-02-28T09:01:48.414Z,55.09
2023-02-28T09:02:48.401Z,54.96
2023-02-28T09:03:48.472Z,55.06
2023-02-28T09:04:49.391Z,54.85
2023-02-28T09:05:48.404Z,54.44
2023-02-28T09:06:48.384Z,54.13
2023-02-28T09:07:48.360Z,54.00
2023-02-28T09:08:48.373Z,53.30
2023-02-28T09:09:48.357Z,53.92
2023-02-28T09:10:48.348Z,53.71
2023-02-28T09:11:48.333Z,53.08
2023-02-28T09:12:48.323Z,52.98
2023-02-28T09:13:48.384Z,53.61
2023-02-28T09:14:48.311Z,54.64
2023-02-28T09:15:48.302Z,54.96
2023-02-28T09:16:48.338Z,55.14
2023-02-28T09:17:48.742Z,55.66
2023-02-28T09:18:49.310Z,55.58
2023-02-28T09:19:48.285Z,54.96
2023-02-28T09:20:48.270Z,54.88
2023-02-28T09:21:48.264Z,53.53
2023-02-28T09:22:48.270Z,55.53
2023-02-28T09:23:48.260Z,54.88
2023-02-28T09:24:48.311Z,55.51
2023-02-28T09:25:48.245Z,55.19
2023-02-28T09:27:01.541Z,55.61
2023-02-28T09:27:50.210Z,55.16
2023-02-28T09:28:48.238Z,54.54
2023-02-28T09:29:48.211Z,54.67
2023-02-28T09:30:48.232Z,53.74
2023-02-28T09:31:48.210Z,55.09
2023-02-28T09:32:50.343Z,56.13
2023-02-28T09:33:48.159Z,55.30
2023-02-28T09:34:48.152Z,53.74
2023-02-28T09:35:48.231Z,54.69
2023-02-28T09:36:48.665Z,54.91
2023-02-28T09:37:48.129Z,54.80
2023-02-28T09:38:48.903Z,54.59
2023-02-28T09:39:49.124Z,55.11
2023-02-28T09:40:48.113Z,55.32
2023-02-28T09:41:48.121Z,55.53
2023-02-28T09:42:48.091Z,55.53
2023-02-28T09:43:48.090Z,55.19
2023-02-28T09:44:48.083Z,55.40
2023-02-28T09:45:48.134Z,54.88
2023-02-28T09:46:48.061Z,55.09
2023-02-28T09:47:48.058Z,55.61
2023-02-28T09:48:48.046Z,54.85
2023-02-28T09:49:48.087Z,55.16
2023-02-28T09:50:48.025Z,54.96
2023-02-28T09:51:48.017Z,54.05
2023-02-28T09:52:48.023Z,54.69
2023-02-28T09:53:53.290Z,54.91
2023-02-28T09:54:50.001Z,55.19
2023-02-28T09:55:47.988Z,55.22
2023-02-28T09:56:47.979Z,55.19
2023-02-28T09:57:47.982Z,55.09
2023-02-28T09:58:48.865Z,55.40
2023-02-28T09:59:47.960Z,54.64
2023-02-28T10:00:47.954Z,55.06
2023-02-28T10:01:47.980Z,54.64
2023-02-28T10:02:47.938Z,55.48
2023-02-28T10:03:48.919Z,54.54
2023-02-28T10:04:47.957Z,53.40
2023-02-28T10:05:47.908Z,53.32
2023-02-28T10:06:47.925Z,53.63
2023-02-28T10:07:48.900Z,53.42
2023-02-28T10:08:47.882Z,53.63
2023-02-28T10:09:47.874Z,54.15
2023-02-28T10:10:47.985Z,53.63
2023-02-28T10:12:48.863Z,53.61
2023-02-28T10:13:47.843Z,53.30
2023-02-28T10:14:47.857Z,53.30
2023-02-28T10:15:47.880Z,53.69
2023-02-28T10:16:47.822Z,53.48
2023-02-28T10:17:55.676Z,52.85
2023-02-28T10:18:49.800Z,53.79
2023-02-28T10:19:48.796Z,53.11
2023-02-28T10:20:47.800Z,52.15
2023-02-28T10:21:47.774Z,50.26
2023-02-28T10:22:47.768Z,50.78
2023-02-28T10:23:47.760Z,49.43
2023-02-28T10:24:47.747Z,49.43
2023-02-28T10:25:47.774Z,50.05
2023-02-28T10:26:47.740Z,49.93
2023-02-28T10:27:47.738Z,49.62
2023-02-28T10:28:47.722Z,49.41
2023-02-28T10:29:47.706Z,50.45
2023-02-28T10:30:47.764Z,50.12
2023-02-28T10:31:47.777Z,48.35
2023-02-28T10:32:47.682Z,48.46
2023-02-28T10:33:48.398Z,48.79
2023-02-28T10:34:47.672Z,49.72
2023-02-28T10:35:47.776Z,49.62
2023-02-28T10:36:47.656Z,50.01
2023-02-28T10:37:47.655Z,49.10
2023-02-28T10:38:47.651Z,49.62
2023-02-28T10:39:47.633Z,49.82
2023-02-28T10:40:47.629Z,49.72
2023-02-28T10:41:48.366Z,48.79
2023-02-28T10:42:47.613Z,48.50
2023-02-28T10:43:47.606Z,49.35
2023-02-28T10:44:47.592Z,49.35
2023-02-28T10:45:47.590Z,50.39
2023-02-28T10:46:47.666Z,50.29
2023-02-28T10:47:47.581Z,50.73
2023-02-28T10:48:47.565Z,50.62
2023-02-28T10:49:47.555Z,50.21
2023-02-28T10:50:47.553Z,50.62
2023-02-28T10:51:47.536Z,51.14
2023-02-28T10:52:47.535Z,50.31
2023-02-28T10:54:00.105Z,50.42
2023-02-28T10:54:49.549Z,50.73
2023-02-28T10:55:47.514Z,50.21
2023-02-28T10:56:47.514Z,50.83
2023-02-28T10:57:47.491Z,51.45
2023-02-28T10:58:47.486Z,50.70
2023-02-28T10:59:47.490Z,50.08
2023-02-28T11:00:47.476Z,50.08
2023-02-28T11:01:47.536Z,50.47
2023-02-28T11:02:47.531Z,50.16
2023-02-28T11:03:47.466Z,50.57
2023-02-28T11:04:48.897Z,50.16
2023-02-28T11:05:48.425Z,50.26
2023-02-28T11:06:47.450Z,50.91
2023-02-28T11:07:53.446Z,50.68
2023-02-28T11:08:51.336Z,50.26
2023-02-28T11:09:47.426Z,50.65
2023-02-28T11:10:50.925Z,49.64
2023-02-28T11:11:47.391Z,50.34
2023-02-28T11:12:53.141Z,50.78
2023-02-28T11:13:49.385Z,50.34
2023-02-28T11:14:47.362Z,50.24
2023-02-28T11:15:47.378Z,50.34
2023-02-28T11:16:47.356Z,50.03
2023-02-28T11:17:47.395Z,50.34
2023-02-28T11:18:47.320Z,50.86
2023-02-28T11:19:47.313Z,50.86
2023-02-28T11:20:47.365Z,50.16
2023-02-28T11:21:47.301Z,51.43
2023-02-28T11:22:47.322Z,50.60
2023-02-28T11:23:47.282Z,51.12
2023-02-28T11:24:47.279Z,50.62
2023-02-28T11:25:48.917Z,51.45
2023-02-28T11:26:47.272Z,50.73
2023-02-28T11:27:47.251Z,50.83
2023-02-28T11:28:47.233Z,51.01
2023-02-28T11:29:47.254Z,51.12
2023-02-28T11:30:47.222Z,50.08
2023-02-28T11:31:47.287Z,51.04
2023-02-28T11:32:47.295Z,50.93
2023-02-28T11:33:47.207Z,51.14
2023-02-28T11:34:47.199Z,50.85
2023-02-28T11:35:47.202Z,51.89
2023-02-28T11:36:47.198Z,52.41
2023-02-28T11:37:47.953Z,52.31
2023-02-28T11:38:50.898Z,52.44
2023-02-28T11:39:48.183Z,52.54
2023-02-28T11:40:49.019Z,52.44
2023-02-28T11:41:47.137Z,52.93
2023-02-28T11:42:47.165Z,52.31
2023-02-28T11:43:47.872Z,52.83
2023-02-28T11:44:47.179Z,53.11
2023-02-28T11:45:47.097Z,53.11
2023-02-28T11:46:47.191Z,52.28
2023-02-28T11:47:47.136Z,51.89
2023-02-28T11:48:47.090Z,52.51
2023-02-28T11:49:47.089Z,52.41
2023-02-28T11:50:47.926Z,53.11
2023-02-28T11:51:47.053Z,53.43
2023-02-28T11:52:47.057Z,52.47
2023-02-28T11:53:47.040Z,52.18
2023-02-28T11:54:49.941Z,52.47
2023-02-28T11:55:47.047Z,52.47
2023-02-28T11:56:47.039Z,52.98
2023-02-28T11:57:47.030Z,52.57
2023-02-28T11:58:48.405Z,52.39
2023-02-28T11:59:48.942Z,52.49
2023-02-28T12:00:47.002Z,52.72
2023-02-28T12:01:46.988Z,52.93
2023-02-28T12:02:47.152Z,52.62
2023-02-28T12:03:46.982Z,53.38
2023-02-28T12:04:48.296Z,53.35
2023-02-28T12:05:47.027Z,53.66
2023-02-28T12:06:46.949Z,53.14
2023-02-28T12:07:47.972Z,53.48
2023-02-28T12:08:47.923Z,53.77
2023-02-28T12:09:47.477Z,53.35
2023-02-28T12:10:48.922Z,53.64
2023-02-28T12:12:03.397Z,53.33
2023-02-28T12:12:47.988Z,52.91
2023-02-28T12:13:49.436Z,53.22
2023-02-28T12:14:46.914Z,53.33
2023-02-28T12:15:50.859Z,53.41
2023-02-28T12:16:46.892Z,52.67
2023-02-28T12:17:46.861Z,52.15
2023-02-28T12:18:46.857Z,51.82
2023-02-28T12:19:51.363Z,51.01
2023-02-28T12:20:48.485Z,51.25
2023-02-28T12:21:48.455Z,52.18
2023-02-28T12:22:46.819Z,52.31
2023-02-28T12:23:46.815Z,52.59
2023-02-28T12:24:48.470Z,52.49
2023-02-28T12:25:47.395Z,52.00
2023-02-28T12:26:47.434Z,52.91
2023-02-28T12:27:46.770Z,53.01
2023-02-28T12:28:46.788Z,52.59
2023-02-28T12:29:46.764Z,52.28
2023-02-28T12:30:47.440Z,52.08
2023-02-28T12:31:46.931Z,52.70
2023-02-28T12:32:46.776Z,52.18
2023-02-28T12:33:46.963Z,52.49
2023-02-28T12:34:46.729Z,52.15
2023-02-28T12:35:46.736Z,52.78
2023-02-28T12:36:46.704Z,52.05
2023-02-28T12:37:46.685Z,52.47
2023-02-28T12:38:47.386Z,52.67
2023-02-28T12:39:50.564Z,52.13
2023-02-28T12:40:47.679Z,52.15
2023-02-28T12:41:46.656Z,52.05
2023-02-28T12:42:46.655Z,51.84
2023-02-28T12:43:46.649Z,52.26
2023-02-28T12:44:46.653Z,51.84
2023-02-28T12:45:46.751Z,52.05
2023-02-28T12:46:46.679Z,52.67
2023-02-28T12:47:46.604Z,52.36
2023-02-28T12:48:46.622Z,52.67
2023-02-28T12:49:46.590Z,52.39
2023-02-28T12:50:46.604Z,52.57
2023-02-28T12:51:46.585Z,52.57
2023-02-28T12:52:46.568Z,51.74
2023-02-28T12:53:46.588Z,52.88